sensor_id;sensor_type;location;lat;lon;timestamp;P1;durP1;ratioP1;P2;durP2;ratioP2
11173;SDS011;5643;50.856;12.088;2023-04-03T02:44:43;2.33;;;1.13;;
11173;SDS011;5643;50.856;12.088;2023-04-03T02:47:11;2.00;;;1.13;;
11173;SDS011;5643;50.856;12.088;2023-04-03T02:49:38;3.20;;;1.27;;
11173;SDS011;5643;50.856;12.088;2023-04-03T02:52:05;2.90;;;1.53;;
11173;SDS011;5643;50.856;12.088;2023-04-03T02:54:33;2.30;;;1.17;;
11173;SDS011;5643;50.856;12.088;2023-04-03T02:57:00;3.63;;;1.47;;
11173;SDS011;5643;50.856;12.088;2023-04-03T02:59:28;2.10;;;1.10;;
11173;SDS011;5643;50.856;12.088;2023-04-03T03:01:57;3.13;;;1.10;;
11173;SDS011;5643;50.856;12.088;2023-04-03T03:04:24;3.17;;;1.20;;
11173;SDS011;5643;50.856;12.088;2023-04-03T03:06:57;3.00;;;1.80;;
11173;SDS011;5643;50.856;12.088;2023-04-03T03:09:24;3.00;;;1.27;;
11173;SDS011;5643;50.856;12.088;2023-04-03T03:11:52;3.53;;;1.40;;
11173;SDS011;5643;50.856;12.088;2023-04-03T03:14:19;2.23;;;1.20;;
11173;SDS011;5643;50.856;12.088;2023-04-03T03:16:47;3.23;;;1.53;;
11173;SDS011;5643;50.856;12.088;2023-04-03T03:19:15;1.90;;;1.10;;
11173;SDS011;5643;50.856;12.088;2023-04-03T03:21:44;3.00;;;1.20;;
11173;SDS011;5643;50.856;12.088;2023-04-03T06:46:18;2.57;;;1.63;;
11173;SDS011;5643;50.856;12.088;2023-04-03T06:48:46;4.07;;;2.07;;
11173;SDS011;5643;50.856;12.088;2023-04-03T06:51:15;5.47;;;2.20;;
11173;SDS011;5643;50.856;12.088;2023-04-03T06:53:44;3.60;;;1.70;;
11173;SDS011;5643;50.856;12.088;2023-04-03T06:56:12;2.70;;;1.40;;
11173;SDS011;5643;50.856;12.088;2023-04-03T06:58:39;3.60;;;1.57;;
11173;SDS011;5643;50.856;12.088;2023-04-03T07:01:07;2.63;;;1.37;;
11173;SDS011;5643;50.856;12.088;2023-04-03T07:03:36;3.33;;;1.50;;
11173;SDS011;5643;50.856;12.088;2023-04-03T07:06:05;2.80;;;1.40;;
11173;SDS011;5643;50.856;12.088;2023-04-03T07:08:33;2.57;;;1.50;;
11173;SDS011;5643;50.856;12.088;2023-04-03T07:11:00;3.00;;;1.47;;
11173;SDS011;5643;50.856;12.088;2023-04-03T07:13:28;3.07;;;1.67;;
11173;SDS011;5643;50.856;12.088;2023-04-03T07:15:57;4.27;;;2.13;;
11173;SDS011;5643;50.856;12.088;2023-04-03T07:18:24;4.00;;;1.83;;
11173;SDS011;5643;50.856;12.088;2023-04-03T07:20:55;2.57;;;1.47;;
11173;SDS011;5643;50.856;12.088;2023-04-03T07:23:26;3.10;;;1.43;;
11173;SDS011;5643;50.856;12.088;2023-04-03T07:25:53;2.30;;;1.20;;
11173;SDS011;5643;50.856;12.088;2023-04-03T07:28:21;3.90;;;1.60;;
11173;SDS011;5643;50.856;12.088;2023-04-03T07:30:50;3.07;;;1.30;;
11173;SDS011;5643;50.856;12.088;2023-04-03T07:33:20;4.30;;;1.60;;
11173;SDS011;5643;50.856;12.088;2023-04-03T07:35:47;4.27;;;1.77;;
11173;SDS011;5643;50.856;12.088;2023-04-03T07:38:16;3.73;;;1.60;;
11173;SDS011;5643;50.856;12.088;2023-04-03T07:40:45;3.67;;;1.73;;
11173;SDS011;5643;50.856;12.088;2023-04-03T07:43:13;3.03;;;1.50;;
11173;SDS011;5643;50.856;12.088;2023-04-03T07:45:40;3.70;;;1.40;;
11173;SDS011;5643;50.856;12.088;2023-04-03T09:50:18;1.40;;;0.70;;
11173;SDS011;5643;50.856;12.088;2023-04-03T09:52:46;1.37;;;0.80;;
11173;SDS011;5643;50.856;12.088;2023-04-03T09:55:14;1.33;;;0.90;;
11173;SDS011;5643;50.856;12.088;2023-04-03T09:57:44;1.67;;;1.00;;
11173;SDS011;5643;50.856;12.088;2023-04-03T10:00:19;2.10;;;1.10;;
11173;SDS011;5643;50.856;12.088;2023-04-03T10:02:49;1.60;;;0.80;;
11173;SDS011;5643;50.856;12.088;2023-04-03T10:05:30;1.60;;;1.00;;
11173;SDS011;5643;50.856;12.088;2023-04-03T10:08:08;0.93;;;0.60;;
11173;SDS011;5643;50.856;12.088;2023-04-03T10:10:37;1.30;;;0.63;;
11173;SDS011;5643;50.856;12.088;2023-04-03T10:13:05;1.43;;;0.80;;
11173;SDS011;5643;50.856;12.088;2023-04-03T10:15:35;1.60;;;0.90;;
11173;SDS011;5643;50.856;12.088;2023-04-03T10:18:04;1.57;;;0.70;;
11173;SDS011;5643;50.856;12.088;2023-04-03T10:20:37;1.13;;;0.57;;
11173;SDS011;5643;50.856;12.088;2023-04-03T10:23:15;1.73;;;0.77;;
11173;SDS011;5643;50.856;12.088;2023-04-03T10:25:43;1.23;;;0.80;;
11173;SDS011;5643;50.856;12.088;2023-04-03T10:28:15;1.73;;;1.13;;
11173;SDS011;5643;50.856;12.088;2023-04-03T10:30:48;1.53;;;0.87;;
11173;SDS011;5643;50.856;12.088;2023-04-03T10:33:21;2.57;;;0.87;;
11173;SDS011;5643;50.856;12.088;2023-04-03T10:35:56;1.00;;;0.90;;
11173;SDS011;5643;50.856;12.088;2023-04-03T10:38:30;1.63;;;0.80;;
11173;SDS011;5643;50.856;12.088;2023-04-03T10:41:01;0.80;;;0.50;;
11173;SDS011;5643;50.856;12.088;2023-04-03T10:43:33;1.53;;;0.77;;
11173;SDS011;5643;50.856;12.088;2023-04-03T10:46:06;1.30;;;0.80;;
11173;SDS011;5643;50.856;12.088;2023-04-03T10:48:40;1.10;;;0.77;;
11173;SDS011;5643;50.856;12.088;2023-04-03T10:51:14;1.17;;;0.73;;
11173;SDS011;5643;50.856;12.088;2023-04-03T10:53:44;1.03;;;0.60;;
11173;SDS011;5643;50.856;12.088;2023-04-03T10:56:18;1.50;;;0.77;;
11173;SDS011;5643;50.856;12.088;2023-04-03T10:58:48;1.53;;;0.73;;
11173;SDS011;5643;50.856;12.088;2023-04-03T11:01:17;1.20;;;0.60;;
11173;SDS011;5643;50.856;12.088;2023-04-03T11:03:48;1.03;;;0.80;;
11173;SDS011;5643;50.856;12.088;2023-04-03T11:06:19;0.90;;;0.80;;
11173;SDS011;5643;50.856;12.088;2023-04-03T11:08:49;1.77;;;0.67;;
11173;SDS011;5643;50.856;12.088;2023-04-03T11:11:21;1.30;;;0.83;;
11173;SDS011;5643;50.856;12.088;2023-04-03T11:13:49;1.87;;;0.70;;
11173;SDS011;5643;50.856;12.088;2023-04-03T11:16:21;1.37;;;0.70;;
11173;SDS011;5643;50.856;12.088;2023-04-03T11:18:52;1.30;;;0.60;;
11173;SDS011;5643;50.856;12.088;2023-04-03T11:21:22;1.67;;;1.00;;
11173;SDS011;5643;50.856;12.088;2023-04-03T11:23:52;1.80;;;0.90;;
11173;SDS011;5643;50.856;12.088;2023-04-03T11:26:21;1.00;;;0.70;;
11173;SDS011;5643;50.856;12.088;2023-04-03T11:28:52;1.50;;;0.80;;
11173;SDS011;5643;50.856;12.088;2023-04-03T11:31:23;1.00;;;0.80;;
11173;SDS011;5643;50.856;12.088;2023-04-03T11:33:55;1.20;;;1.00;;
11173;SDS011;5643;50.856;12.088;2023-04-03T11:36:29;1.23;;;0.70;;
11173;SDS011;5643;50.856;12.088;2023-04-03T11:38:58;1.73;;;0.83;;
11173;SDS011;5643;50.856;12.088;2023-04-03T11:41:29;0.70;;;0.60;;
11173;SDS011;5643;50.856;12.088;2023-04-03T11:43:58;1.20;;;0.80;;
11173;SDS011;5643;50.856;12.088;2023-04-03T11:51:57;1.13;;;0.60;;
11173;SDS011;5643;50.856;12.088;2023-04-03T11:59:52;1.73;;;0.80;;
11173;SDS011;5643;50.856;12.088;2023-04-03T12:02:36;1.40;;;0.80;;
11173;SDS011;5643;50.856;12.088;2023-04-03T12:08:25;1.10;;;0.70;;
11173;SDS011;5643;50.856;12.088;2023-04-03T12:13:37;3.37;;;0.97;;
11173;SDS011;5643;50.856;12.088;2023-04-03T12:16:05;1.40;;;0.90;;
11173;SDS011;5643;50.856;12.088;2023-04-03T12:18:43;2.67;;;1.20;;
11173;SDS011;5643;50.856;12.088;2023-04-03T12:21:12;1.37;;;0.97;;
11173;SDS011;5643;50.856;12.088;2023-04-03T12:26:25;1.70;;;1.00;;
11173;SDS011;5643;50.856;12.088;2023-04-03T12:28:53;1.10;;;0.80;;
11173;SDS011;5643;50.856;12.088;2023-04-03T12:31:23;1.57;;;0.70;;
11173;SDS011;5643;50.856;12.088;2023-04-03T12:34:01;2.00;;;0.90;;
11173;SDS011;5643;50.856;12.088;2023-04-03T12:36:36;2.10;;;0.90;;
11173;SDS011;5643;50.856;12.088;2023-04-03T12:39:15;1.00;;;0.83;;
11173;SDS011;5643;50.856;12.088;2023-04-03T12:41:48;2.20;;;1.20;;
11173;SDS011;5643;50.856;12.088;2023-04-03T12:44:20;2.03;;;1.00;;
11173;SDS011;5643;50.856;12.088;2023-04-03T12:46:52;1.83;;;1.00;;
11173;SDS011;5643;50.856;12.088;2023-04-03T12:52:06;1.53;;;0.70;;
11173;SDS011;5643;50.856;12.088;2023-04-03T12:54:43;1.20;;;0.70;;
11173;SDS011;5643;50.856;12.088;2023-04-03T12:57:18;1.23;;;0.70;;
11173;SDS011;5643;50.856;12.088;2023-04-03T12:59:45;1.57;;;0.90;;
11173;SDS011;5643;50.856;12.088;2023-04-03T13:02:21;5.00;;;1.17;;
11173;SDS011;5643;50.856;12.088;2023-04-03T13:04:50;1.27;;;0.80;;
11173;SDS011;5643;50.856;12.088;2023-04-03T13:07:27;1.17;;;0.90;;
11173;SDS011;5643;50.856;12.088;2023-04-03T13:10:02;1.07;;;0.60;;
11173;SDS011;5643;50.856;12.088;2023-04-03T13:12:31;1.07;;;0.63;;
11173;SDS011;5643;50.856;12.088;2023-04-03T13:15:00;1.63;;;0.90;;
11173;SDS011;5643;50.856;12.088;2023-04-03T13:17:30;2.87;;;1.20;;
11173;SDS011;5643;50.856;12.088;2023-04-03T13:20:12;1.83;;;1.00;;
11173;SDS011;5643;50.856;12.088;2023-04-03T13:22:47;2.03;;;0.80;;
11173;SDS011;5643;50.856;12.088;2023-04-03T13:25:15;2.03;;;1.10;;
11173;SDS011;5643;50.856;12.088;2023-04-03T13:27:45;1.67;;;0.87;;
11173;SDS011;5643;50.856;12.088;2023-04-03T13:30:19;1.73;;;0.90;;
11173;SDS011;5643;50.856;12.088;2023-04-03T13:32:49;1.03;;;0.80;;
11173;SDS011;5643;50.856;12.088;2023-04-03T13:35:27;1.97;;;0.93;;
11173;SDS011;5643;50.856;12.088;2023-04-03T13:37:55;1.97;;;0.90;;
11173;SDS011;5643;50.856;12.088;2023-04-03T13:40:23;2.20;;;1.10;;
11173;SDS011;5643;50.856;12.088;2023-04-03T13:43:00;1.23;;;1.00;;
11173;SDS011;5643;50.856;12.088;2023-04-03T13:45:28;2.83;;;1.17;;
11173;SDS011;5643;50.856;12.088;2023-04-03T13:48:07;2.87;;;1.07;;
11173;SDS011;5643;50.856;12.088;2023-04-03T19:51:16;1.43;;;1.13;;
11173;SDS011;5643;50.856;12.088;2023-04-03T19:53:44;0.97;;;0.80;;
11173;SDS011;5643;50.856;12.088;2023-04-03T19:56:14;0.87;;;0.80;;
11173;SDS011;5643;50.856;12.088;2023-04-03T19:58:41;1.60;;;1.00;;
11173;SDS011;5643;50.856;12.088;2023-04-03T20:01:09;1.53;;;0.90;;
11173;SDS011;5643;50.856;12.088;2023-04-03T20:03:36;0.70;;;0.70;;
11173;SDS011;5643;50.856;12.088;2023-04-03T20:06:04;1.67;;;1.10;;
11173;SDS011;5643;50.856;12.088;2023-04-03T20:08:33;0.83;;;0.70;;
11173;SDS011;5643;50.856;12.088;2023-04-03T20:11:01;1.00;;;0.80;;
11173;SDS011;5643;50.856;12.088;2023-04-03T20:13:28;0.60;;;0.60;;
11173;SDS011;5643;50.856;12.088;2023-04-03T20:15:56;0.93;;;0.80;;
11173;SDS011;5643;50.856;12.088;2023-04-03T20:18:23;1.00;;;0.60;;
11173;SDS011;5643;50.856;12.088;2023-04-03T20:20:51;1.27;;;0.60;;
11173;SDS011;5643;50.856;12.088;2023-04-03T20:23:21;0.90;;;0.60;;
11173;SDS011;5643;50.856;12.088;2023-04-03T20:25:54;1.73;;;0.80;;
11173;SDS011;5643;50.856;12.088;2023-04-03T20:28:22;1.23;;;0.83;;
11173;SDS011;5643;50.856;12.088;2023-04-03T20:30:55;1.30;;;0.70;;
11173;SDS011;5643;50.856;12.088;2023-04-03T20:33:23;2.00;;;1.17;;
11173;SDS011;5643;50.856;12.088;2023-04-03T20:35:55;1.10;;;1.00;;
11173;SDS011;5643;50.856;12.088;2023-04-03T20:38:30;1.13;;;0.90;;
11173;SDS011;5643;50.856;12.088;2023-04-03T20:41:04;0.70;;;0.70;;
11173;SDS011;5643;50.856;12.088;2023-04-03T20:43:32;1.20;;;0.80;;
11173;SDS011;5643;50.856;12.088;2023-04-03T20:46:00;1.53;;;0.90;;
11173;SDS011;5643;50.856;12.088;2023-04-03T20:48:29;1.37;;;0.87;;
11173;SDS011;5643;50.856;12.088;2023-04-03T20:50:57;1.17;;;0.87;;
11173;SDS011;5643;50.856;12.088;2023-04-03T20:53:24;1.17;;;0.70;;
11173;SDS011;5643;50.856;12.088;2023-04-03T20:55:53;0.93;;;0.60;;
11173;SDS011;5643;50.856;12.088;2023-04-03T20:58:22;0.97;;;0.80;;
11173;SDS011;5643;50.856;12.088;2023-04-03T21:00:50;1.00;;;0.60;;
11173;SDS011;5643;50.856;12.088;2023-04-03T21:03:20;1.00;;;0.70;;
11173;SDS011;5643;50.856;12.088;2023-04-03T21:05:48;1.00;;;0.90;;
11173;SDS011;5643;50.856;12.088;2023-04-03T21:19:11;1.00;;;0.40;;
11173;SDS011;5643;50.856;12.088;2023-04-03T21:21:39;0.83;;;0.43;;
11173;SDS011;5643;50.856;12.088;2023-04-03T21:24:06;0.50;;;0.50;;
11173;SDS011;5643;50.856;12.088;2023-04-03T21:26:36;0.50;;;0.50;;
11173;SDS011;5643;50.856;12.088;2023-04-03T21:29:04;0.97;;;0.40;;
11173;SDS011;5643;50.856;12.088;2023-04-03T21:31:51;0.67;;;0.67;;
11173;SDS011;5643;50.856;12.088;2023-04-03T21:34:20;1.13;;;0.80;;
11173;SDS011;5643;50.856;12.088;2023-04-03T21:36:50;1.53;;;0.60;;
11173;SDS011;5643;50.856;12.088;2023-04-03T21:39:18;0.60;;;0.60;;
11173;SDS011;5643;50.856;12.088;2023-04-03T21:41:46;0.83;;;0.70;;
11173;SDS011;5643;50.856;12.088;2023-04-03T21:44:13;0.40;;;0.40;;
11173;SDS011;5643;50.856;12.088;2023-04-03T21:46:40;0.63;;;0.53;;
11173;SDS011;5643;50.856;12.088;2023-04-03T21:49:08;0.97;;;0.70;;
11173;SDS011;5643;50.856;12.088;2023-04-03T21:51:39;1.07;;;0.90;;
11173;SDS011;5643;50.856;12.088;2023-04-03T22:55:03;1.27;;;0.80;;
11173;SDS011;5643;50.856;12.088;2023-04-03T22:57:31;0.73;;;0.60;;
11173;SDS011;5643;50.856;12.088;2023-04-03T22:59:58;0.50;;;0.40;;
11173;SDS011;5643;50.856;12.088;2023-04-03T23:02:26;1.00;;;0.70;;
11173;SDS011;5643;50.856;12.088;2023-04-03T23:04:53;0.50;;;0.50;;
11173;SDS011;5643;50.856;12.088;2023-04-03T23:07:20;0.53;;;0.50;;
11173;SDS011;5643;50.856;12.088;2023-04-03T23:09:47;0.50;;;0.30;;
11173;SDS011;5643;50.856;12.088;2023-04-03T23:12:16;0.30;;;0.30;;
11173;SDS011;5643;50.856;12.088;2023-04-03T23:14:43;0.87;;;0.40;;
11173;SDS011;5643;50.856;12.088;2023-04-03T23:17:10;0.37;;;0.37;;
11173;SDS011;5643;50.856;12.088;2023-04-03T23:19:38;0.43;;;0.40;;
11173;SDS011;5643;50.856;12.088;2023-04-03T23:22:05;0.60;;;0.50;;
11173;SDS011;5643;50.856;12.088;2023-04-03T23:24:33;0.77;;;0.40;;
11173;SDS011;5643;50.856;12.088;2023-04-03T23:27:02;0.60;;;0.40;;
11173;SDS011;5643;50.856;12.088;2023-04-03T23:29:30;0.70;;;0.50;;
11173;SDS011;5643;50.856;12.088;2023-04-03T23:31:57;0.50;;;0.50;;
11173;SDS011;5643;50.856;12.088;2023-04-03T23:34:25;0.70;;;0.60;;
11173;SDS011;5643;50.856;12.088;2023-04-03T23:36:56;0.40;;;0.40;;
11173;SDS011;5643;50.856;12.088;2023-04-03T23:39:23;0.77;;;0.40;;
11173;SDS011;5643;50.856;12.088;2023-04-03T23:41:50;0.40;;;0.40;;
11173;SDS011;5643;50.856;12.088;2023-04-03T23:44:18;0.30;;;0.30;;
11173;SDS011;5643;50.856;12.088;2023-04-03T23:46:47;0.57;;;0.40;;
11173;SDS011;5643;50.856;12.088;2023-04-03T23:49:14;0.93;;;0.50;;
11173;SDS011;5643;50.856;12.088;2023-04-03T23:51:42;0.40;;;0.40;;
